createdAt,value
2022-10-05T00:02:24.123Z,7.22
2022-10-05T00:04:55.684Z,7.10
2022-10-05T00:07:24.286Z,7.07
2022-10-05T00:10:00.308Z,7.04
2022-10-05T00:12:29.886Z,7.04
2022-10-05T00:15:00.903Z,6.97
2022-10-05T00:17:29.419Z,6.91
2022-10-05T00:19:56.331Z,6.86
2022-10-05T00:22:29.064Z,6.82
2022-10-05T00:24:58.552Z,6.75
2022-10-05T00:27:29.918Z,6.69
2022-10-05T00:30:00.137Z,6.56
2022-10-05T00:32:27.064Z,6.52
2022-10-05T00:34:53.958Z,6.44
2022-10-05T00:37:20.535Z,6.42
2022-10-05T00:39:47.071Z,6.25
2022-10-05T00:42:19.790Z,6.31
2022-10-05T00:44:46.215Z,6.29
2022-10-05T00:47:44.765Z,6.25
2022-10-05T00:50:18.197Z,6.21
2022-10-05T00:52:53.653Z,6.20
2022-10-05T00:55:43.496Z,6.08
2022-10-05T00:58:23.332Z,6.11
2022-10-05T01:00:58.787Z,6.12
2022-10-05T01:03:57.149Z,5.92
2022-10-05T01:06:48.682Z,5.81
2022-10-05T01:09:31.410Z,5.77
2022-10-05T01:12:27.616Z,5.82
2022-10-05T01:15:08.691Z,5.92
2022-10-05T01:17:35.126Z,6.01
2022-10-05T01:20:16.786Z,6.07
2022-10-05T01:22:49.147Z,6.10
2022-10-05T01:25:37.347Z,6.14
2022-10-05T01:31:26.760Z,6.13
2022-10-05T01:34:25.116Z,6.09
2022-10-05T01:37:02.933Z,6.03
2022-10-05T01:39:40.775Z,5.95
2022-10-05T01:42:17.958Z,5.92
2022-10-05T01:45:17.214Z,5.87
2022-10-05T01:47:46.914Z,5.83
2022-10-05T01:50:26.782Z,5.83
2022-10-05T01:53:11.285Z,5.80
2022-10-05T01:55:43.019Z,5.81
2022-10-05T01:58:24.443Z,5.80
2022-10-05T02:01:49.078Z,5.72
2022-10-05T02:04:42.774Z,5.58
2022-10-05T02:07:14.652Z,5.55
2022-10-05T02:09:52.033Z,5.52
2022-10-05T02:12:23.599Z,5.46
2022-10-05T02:14:57.435Z,5.42
2022-10-05T02:17:40.271Z,5.40
2022-10-05T02:20:11.400Z,5.32
2022-10-05T02:22:49.100Z,5.33
2022-10-05T02:25:23.409Z,5.33
2022-10-05T02:28:15.491Z,5.32
2022-10-05T02:30:47.559Z,5.22
2022-10-05T02:33:25.647Z,5.19
2022-10-05T02:35:52.191Z,5.17
2022-10-05T02:38:33.715Z,5.15
2022-10-05T02:41:34.134Z,5.17
2022-10-05T02:44:20.913Z,5.09
2022-10-05T02:47:02.681Z,5.03
2022-10-05T02:49:53.601Z,5.06
2022-10-05T02:52:32.191Z,5.00
2022-10-05T02:54:59.086Z,4.91
2022-10-05T02:57:34.299Z,4.85
2022-10-05T03:00:13.042Z,4.78
2022-10-05T03:03:03.833Z,4.79
2022-10-05T03:05:38.542Z,4.77
2022-10-05T03:08:13.409Z,4.70
2022-10-05T03:10:48.985Z,4.65
2022-10-05T03:13:32.627Z,4.63
2022-10-05T03:16:06.485Z,4.57
2022-10-05T03:18:54.794Z,4.57
2022-10-05T03:21:52.332Z,4.54
2022-10-05T03:25:06.046Z,4.49
2022-10-05T03:27:41.695Z,4.49
2022-10-05T03:30:15.905Z,4.47
2022-10-05T03:33:21.106Z,4.44
2022-10-05T03:35:53.835Z,4.40
2022-10-05T03:38:37.911Z,4.38
2022-10-05T03:41:31.613Z,4.41
2022-10-05T03:44:39.501Z,4.32
2022-10-05T03:47:28.863Z,4.23
2022-10-05T03:50:26.459Z,4.23
2022-10-05T03:53:01.267Z,4.25
2022-10-05T03:55:40.923Z,4.21
2022-10-05T03:58:19.089Z,4.18
2022-10-05T04:00:49.953Z,4.12
2022-10-05T04:03:24.745Z,4.08
2022-10-05T04:05:58.630Z,4.08
2022-10-05T04:08:30.947Z,4.03
2022-10-05T04:11:01.918Z,4.05
2022-10-05T04:13:37.649Z,4.03
2022-10-05T04:16:11.412Z,4.01
2022-10-05T04:18:48.782Z,3.97
2022-10-05T04:21:26.327Z,4.01
2022-10-05T04:24:19.802Z,3.97
2022-10-05T04:26:59.786Z,3.94
2022-10-05T04:29:48.285Z,3.94
2022-10-05T04:32:20.585Z,3.93
2022-10-05T04:35:03.110Z,3.88
2022-10-05T04:37:48.050Z,3.82
2022-10-05T04:41:00.309Z,3.80
2022-10-05T04:43:43.011Z,3.82
2022-10-05T04:46:40.233Z,3.82
2022-10-05T04:49:24.819Z,3.78
2022-10-05T04:52:11.989Z,3.73
2022-10-05T04:55:15.691Z,3.75
2022-10-05T04:58:02.299Z,3.72
2022-10-05T05:00:40.753Z,3.70
2022-10-05T05:03:15.520Z,3.70
2022-10-05T05:06:18.401Z,3.75
2022-10-05T05:08:57.383Z,3.76
2022-10-05T05:11:54.466Z,3.78
2022-10-05T05:14:24.126Z,3.82
2022-10-05T05:17:32.322Z,3.82
2022-10-05T05:20:24.900Z,3.90
2022-10-05T05:22:57.306Z,3.94
2022-10-05T05:25:40.103Z,4.00
2022-10-05T05:28:17.965Z,4.07
2022-10-05T05:30:52.399Z,4.16
2022-10-05T05:33:20.926Z,4.23
2022-10-05T05:36:02.679Z,4.24
2022-10-05T05:38:44.558Z,4.29
2022-10-05T05:41:22.679Z,4.34
2022-10-05T05:44:05.886Z,4.46
2022-10-05T05:47:02.808Z,4.53
2022-10-05T05:49:45.953Z,4.66
2022-10-05T05:52:25.510Z,4.77
2022-10-05T05:55:01.108Z,4.84
2022-10-05T05:57:48.563Z,4.93
2022-10-05T06:00:15.034Z,5.05
2022-10-05T06:02:52.822Z,5.16
2022-10-05T06:05:25.006Z,5.24
2022-10-05T06:07:53.866Z,5.35
2022-10-05T06:10:41.548Z,5.47
2022-10-05T06:13:17.339Z,5.56
2022-10-05T06:15:43.807Z,5.63
2022-10-05T06:18:20.317Z,5.73
2022-10-05T06:21:03.587Z,5.84
2022-10-05T06:23:39.213Z,5.94
2022-10-05T06:26:21.194Z,6.03
2022-10-05T06:29:00.749Z,6.15
2022-10-05T06:31:58.919Z,6.27
2022-10-05T06:35:04.930Z,6.39
2022-10-05T06:37:31.295Z,6.52
2022-10-05T06:40:01.368Z,6.64
2022-10-05T06:42:45.098Z,6.75
2022-10-05T06:45:17.594Z,6.86
2022-10-05T06:48:02.817Z,7.00
2022-10-05T06:50:48.540Z,7.15
2022-10-05T06:53:27.969Z,7.29
2022-10-05T06:56:10.107Z,7.45
2022-10-05T06:58:45.359Z,7.62
2022-10-05T07:01:35.237Z,7.78
2022-10-05T07:04:13.932Z,7.96
2022-10-05T07:06:49.706Z,8.14
2022-10-05T07:09:25.256Z,8.33
2022-10-05T07:12:19.971Z,8.49
2022-10-05T07:15:15.349Z,8.68
2022-10-05T07:17:44.164Z,8.81
2022-10-05T07:20:29.163Z,8.93
2022-10-05T07:23:04.119Z,9.05
2022-10-05T07:25:50.096Z,9.18
2022-10-05T07:28:31.630Z,9.33
2022-10-05T07:31:17.555Z,9.50
2022-10-05T07:33:57.659Z,9.67
2022-10-05T07:37:03.082Z,9.86
2022-10-05T07:39:58.319Z,10.04
2022-10-05T07:42:36.378Z,10.24
2022-10-05T07:45:21.145Z,10.44
2022-10-05T07:47:55.038Z,10.59
2022-10-05T07:50:36.817Z,10.77
2022-10-05T07:53:22.904Z,10.93
2022-10-05T07:55:55.803Z,11.02
2022-10-05T07:58:38.501Z,11.13
2022-10-05T08:01:19.258Z,11.26
2022-10-05T08:03:54.422Z,11.36
2022-10-05T08:06:49.382Z,11.51
2022-10-05T08:09:22.236Z,11.65
2022-10-05T08:11:57.642Z,11.79
2022-10-05T08:14:46.051Z,11.95
2022-10-05T08:17:25.602Z,12.08
2022-10-05T08:20:30.299Z,12.27
2022-10-05T08:23:19.759Z,12.38
2022-10-05T08:26:06.706Z,12.53
2022-10-05T08:28:42.625Z,12.61
2022-10-05T08:31:12.110Z,12.78
2022-10-05T08:34:10.681Z,12.91
2022-10-05T08:36:39.883Z,13.03
2022-10-05T08:39:16.081Z,13.22
2022-10-05T08:42:01.075Z,13.36
2022-10-05T08:44:49.535Z,13.51
2022-10-05T08:47:18.985Z,13.59
2022-10-05T08:50:07.507Z,13.74
2022-10-05T08:52:52.400Z,13.80
2022-10-05T08:55:33.863Z,13.86
2022-10-05T08:58:18.643Z,13.95
2022-10-05T09:01:06.212Z,14.04
2022-10-05T09:03:35.766Z,14.07
2022-10-05T09:06:27.035Z,14.10
2022-10-05T09:09:15.046Z,14.20
2022-10-05T09:11:57.558Z,14.41
2022-10-05T09:14:52.472Z,14.67
2022-10-05T09:17:42.776Z,14.88
2022-10-05T09:20:18.521Z,15.05
2022-10-05T09:22:51.066Z,15.20
2022-10-05T09:25:46.543Z,15.44
2022-10-05T09:28:29.851Z,15.70
2022-10-05T09:31:22.645Z,15.91
2022-10-05T09:34:21.197Z,16.08
2022-10-05T09:36:47.599Z,16.24
2022-10-05T09:39:43.635Z,16.41
2022-10-05T09:42:16.178Z,16.62
2022-10-05T09:45:07.483Z,16.85
2022-10-05T09:47:46.171Z,17.10
2022-10-05T09:50:40.949Z,17.28
2022-10-05T09:53:32.922Z,17.41
2022-10-05T09:56:20.433Z,17.44
2022-10-05T09:59:18.044Z,17.59
2022-10-05T10:02:14.081Z,17.66
2022-10-05T10:05:01.757Z,17.68
2022-10-05T10:07:50.522Z,17.75
2022-10-05T10:10:29.262Z,17.87
2022-10-05T10:13:14.600Z,18.09
2022-10-05T10:16:13.449Z,18.44
2022-10-05T10:19:24.617Z,18.59
2022-10-05T10:22:05.982Z,18.85
2022-10-05T10:24:47.522Z,19.13
2022-10-05T10:27:35.674Z,19.22
2022-10-05T10:30:38.309Z,19.34
2022-10-05T10:33:31.656Z,19.62
2022-10-05T10:36:11.630Z,20.05
2022-10-05T10:38:59.467Z,20.30
2022-10-05T10:41:34.091Z,20.36
2022-10-05T10:44:38.025Z,20.52
2022-10-05T10:47:30.824Z,20.54
2022-10-05T10:50:04.990Z,20.49
2022-10-05T10:52:49.987Z,20.41
2022-10-05T10:55:41.259Z,20.56
2022-10-05T10:58:26.540Z,20.89
2022-10-05T11:01:06.772Z,21.14
2022-10-05T11:04:03.790Z,21.24
2022-10-05T11:06:40.363Z,21.13
2022-10-05T11:09:08.273Z,21.33
2022-10-05T11:11:53.303Z,21.71
2022-10-05T11:14:22.712Z,21.81
2022-10-05T11:17:20.130Z,22.03
2022-10-05T11:20:04.368Z,22.64
2022-10-05T11:22:58.531Z,23.23
2022-10-05T11:26:01.541Z,23.66
2022-10-05T11:28:30.795Z,24.10
2022-10-05T11:31:19.137Z,24.27
2022-10-05T11:34:17.345Z,24.89
2022-10-05T11:36:53.710Z,25.31
2022-10-05T11:39:25.954Z,25.85
2022-10-05T11:42:10.869Z,25.94
2022-10-05T11:44:58.058Z,26.37
2022-10-05T11:47:29.187Z,26.78
2022-10-05T11:50:14.095Z,27.09
2022-10-05T11:52:52.210Z,27.16
2022-10-05T11:55:42.195Z,27.41
2022-10-05T11:58:25.411Z,27.50
2022-10-05T12:01:01.787Z,27.47
2022-10-05T12:03:58.718Z,27.64
2022-10-05T12:06:53.554Z,27.81
2022-10-05T12:09:40.944Z,27.56
2022-10-05T12:12:22.997Z,27.23
2022-10-05T12:15:02.808Z,26.98
2022-10-05T12:17:46.333Z,26.37
2022-10-05T12:20:26.577Z,26.06
2022-10-05T12:23:12.948Z,25.91
2022-10-05T12:25:49.787Z,26.04
2022-10-05T12:28:23.546Z,25.62
2022-10-05T12:31:13.397Z,25.52
2022-10-05T12:34:05.478Z,25.54
2022-10-05T12:37:04.086Z,25.41
2022-10-05T12:39:50.002Z,25.48
2022-10-05T12:42:36.979Z,25.43
2022-10-05T12:45:18.116Z,25.31
2022-10-05T12:47:51.509Z,25.53
2022-10-05T12:50:20.955Z,25.45
2022-10-05T12:53:02.399Z,25.58
2022-10-05T12:55:40.893Z,25.44
2022-10-05T12:58:17.093Z,25.50
2022-10-05T13:01:05.284Z,25.25
2022-10-05T13:03:39.240Z,25.15
2022-10-05T13:06:12.591Z,25.16
2022-10-05T13:08:50.194Z,25.28
2022-10-05T13:11:32.495Z,25.38
2022-10-05T13:14:17.219Z,24.97
2022-10-05T13:16:54.785Z,24.67
2022-10-05T13:19:32.439Z,24.35
2022-10-05T13:22:27.372Z,24.40
2022-10-05T13:25:03.007Z,24.62
2022-10-05T13:27:38.292Z,25.06
2022-10-05T13:30:20.117Z,25.13
2022-10-05T13:33:04.298Z,25.05
2022-10-05T13:35:45.126Z,24.84
2022-10-05T13:38:43.052Z,25.10
2022-10-05T13:41:34.340Z,25.09
2022-10-05T13:44:21.022Z,25.02
2022-10-05T13:47:12.503Z,24.81
2022-10-05T13:49:53.711Z,24.36
2022-10-05T13:52:56.234Z,24.21
2022-10-05T13:55:41.141Z,23.93
2022-10-05T13:58:12.943Z,23.60
2022-10-05T14:00:54.766Z,23.23
2022-10-05T14:03:38.490Z,22.58
2022-10-05T14:06:13.547Z,22.56
2022-10-05T14:08:52.696Z,22.47
2022-10-05T14:11:31.266Z,22.40
2022-10-05T14:14:14.663Z,22.45
2022-10-05T14:16:52.080Z,22.35
2022-10-05T14:19:40.164Z,22.25
2022-10-05T14:22:24.167Z,22.09
2022-10-05T14:24:56.539Z,22.15
2022-10-05T14:27:26.687Z,22.19
2022-10-05T14:29:58.332Z,22.12
2022-10-05T14:32:27.357Z,22.08
2022-10-05T14:35:15.647Z,21.79
2022-10-05T14:38:00.480Z,21.57
2022-10-05T14:40:37.916Z,21.62
2022-10-05T14:43:19.519Z,21.68
2022-10-05T14:46:23.100Z,21.64
2022-10-05T14:49:21.074Z,21.48
2022-10-05T14:51:49.136Z,21.29
2022-10-05T14:54:41.277Z,21.22
2022-10-05T14:57:33.531Z,20.94
2022-10-05T15:00:16.505Z,20.77
2022-10-05T15:03:19.810Z,20.62
2022-10-05T15:06:08.605Z,20.52
2022-10-05T15:08:45.245Z,20.26
2022-10-05T15:11:42.634Z,20.20
2022-10-05T15:14:19.688Z,20.16
2022-10-05T15:17:02.502Z,20.11
2022-10-05T15:19:38.523Z,19.85
2022-10-05T15:22:28.458Z,19.76
2022-10-05T15:25:23.111Z,19.47
2022-10-05T15:28:05.724Z,19.29
2022-10-05T15:30:37.808Z,19.15
2022-10-05T15:33:09.203Z,18.87
2022-10-05T15:35:48.035Z,18.69
2022-10-05T15:38:23.775Z,18.59
2022-10-05T15:41:02.359Z,18.57
2022-10-05T15:43:50.266Z,18.44
2022-10-05T15:46:34.508Z,18.33
2022-10-05T15:49:08.459Z,18.18
2022-10-05T15:51:37.875Z,18.04
2022-10-05T15:54:43.254Z,18.01
2022-10-05T15:57:27.684Z,17.88
2022-10-05T16:00:02.003Z,17.85
2022-10-05T16:02:51.997Z,17.89
2022-10-05T16:06:08.239Z,17.72
2022-10-05T16:08:53.113Z,17.62
2022-10-05T16:11:51.561Z,17.42
2022-10-05T16:14:38.904Z,17.33
2022-10-05T16:17:19.664Z,17.16
2022-10-05T16:20:20.653Z,17.08
2022-10-05T16:22:49.773Z,16.99
2022-10-05T16:25:20.254Z,16.93
2022-10-05T16:28:05.670Z,16.86
2022-10-05T16:30:58.802Z,16.79
2022-10-05T16:33:37.370Z,16.66
2022-10-05T16:36:10.367Z,16.58
2022-10-05T16:38:39.897Z,16.51
2022-10-05T16:41:15.198Z,16.37
2022-10-05T16:43:49.388Z,16.20
2022-10-05T16:46:43.520Z,16.27
2022-10-05T16:49:25.030Z,16.13
2022-10-05T16:52:05.508Z,15.96
2022-10-05T16:54:52.683Z,15.81
2022-10-05T16:57:28.564Z,15.80
2022-10-05T17:00:09.897Z,15.66
2022-10-05T17:03:04.627Z,15.43
2022-10-05T17:06:10.430Z,15.43
2022-10-05T17:09:11.091Z,15.48
2022-10-05T17:12:02.281Z,15.38
2022-10-05T17:14:28.735Z,15.21
2022-10-05T17:17:03.162Z,15.10
2022-10-05T17:20:00.409Z,15.02
2022-10-05T17:22:49.012Z,14.92
2022-10-05T17:25:40.046Z,14.85
2022-10-05T17:28:18.768Z,14.80
2022-10-05T17:31:06.570Z,14.70
2022-10-05T17:33:34.476Z,14.66
2022-10-05T17:36:04.611Z,14.60
2022-10-05T17:38:31.076Z,14.57
2022-10-05T17:41:00.483Z,14.48
2022-10-05T17:43:31.819Z,14.44
2022-10-05T17:46:00.734Z,14.35
2022-10-05T17:48:50.159Z,14.30
2022-10-05T17:51:47.602Z,14.25
2022-10-05T17:55:15.536Z,14.16
2022-10-05T17:57:42.172Z,14.07
2022-10-05T18:00:40.747Z,13.90
2022-10-05T18:03:41.590Z,13.80
2022-10-05T18:06:52.674Z,13.73
2022-10-05T18:09:33.203Z,13.69
2022-10-05T18:12:11.365Z,13.61
2022-10-05T18:15:01.477Z,13.56
2022-10-05T18:17:57.437Z,13.50
2022-10-05T18:20:23.934Z,13.48
2022-10-05T18:22:53.016Z,13.35
2022-10-05T18:25:27.201Z,13.34
2022-10-05T18:28:03.955Z,13.30
2022-10-05T18:30:40.671Z,13.23
2022-10-05T18:33:33.675Z,13.23
2022-10-05T18:36:37.872Z,13.18
2022-10-05T18:39:28.856Z,13.15
2022-10-05T18:42:14.242Z,13.06
2022-10-05T18:44:55.443Z,13.05
2022-10-05T18:47:49.617Z,12.98
2022-10-05T18:50:25.689Z,12.87
2022-10-05T18:53:02.623Z,12.85
2022-10-05T18:55:36.064Z,12.80
2022-10-05T18:58:02.593Z,12.70
2022-10-05T19:00:59.968Z,12.62
2022-10-05T19:03:39.880Z,12.54
2022-10-05T19:06:20.411Z,12.43
2022-10-05T19:09:13.287Z,12.39
2022-10-05T19:12:18.414Z,12.34
2022-10-05T19:15:17.122Z,12.35
2022-10-05T19:18:29.041Z,12.30
2022-10-05T19:21:07.042Z,12.22
2022-10-05T19:23:47.597Z,12.02
2022-10-05T19:26:15.828Z,12.02
2022-10-05T19:29:05.549Z,11.93
2022-10-05T19:31:49.781Z,11.89
2022-10-05T19:34:39.049Z,11.88
2022-10-05T19:37:14.228Z,11.84
2022-10-05T19:39:58.690Z,11.80
2022-10-05T19:43:03.172Z,11.64
2022-10-05T19:45:34.368Z,11.60
2022-10-05T19:48:07.556Z,11.54
2022-10-05T19:50:37.640Z,11.48
2022-10-05T19:53:22.898Z,11.40
2022-10-05T19:55:49.436Z,11.35
2022-10-05T19:58:27.629Z,11.36
2022-10-05T20:01:01.325Z,11.31
2022-10-05T20:03:30.282Z,11.17
2022-10-05T20:05:59.215Z,11.14
2022-10-05T20:08:27.607Z,11.13
2022-10-05T20:11:17.477Z,11.06
2022-10-05T20:14:06.773Z,10.96
2022-10-05T20:16:52.785Z,10.94
2022-10-05T20:19:47.676Z,10.92
2022-10-05T20:22:34.398Z,10.90
2022-10-05T20:25:06.237Z,10.85
2022-10-05T20:27:37.269Z,10.77
2022-10-05T20:30:05.272Z,10.66
2022-10-05T20:32:31.806Z,10.72
2022-10-05T20:34:58.421Z,10.65
2022-10-05T20:37:25.262Z,10.68
2022-10-05T20:39:52.091Z,10.58
2022-10-05T20:42:20.306Z,10.57
2022-10-05T20:44:47.006Z,10.50
2022-10-05T20:47:13.844Z,10.45
2022-10-05T20:49:41.350Z,10.39
2022-10-05T20:52:10.209Z,10.42
2022-10-05T20:54:38.117Z,10.30
2022-10-05T20:57:06.243Z,10.30
2022-10-05T20:59:33.742Z,10.27
2022-10-05T21:02:01.601Z,10.18
2022-10-05T21:04:40.872Z,10.21
2022-10-05T21:07:08.321Z,10.19
2022-10-05T21:09:37.929Z,10.12
2022-10-05T21:12:04.789Z,10.02
2022-10-05T21:14:34.259Z,10.01
2022-10-05T21:17:01.968Z,9.99
2022-10-05T21:19:29.501Z,9.96
2022-10-05T21:21:59.663Z,9.85
2022-10-05T21:24:26.311Z,9.89
2022-10-05T21:26:55.247Z,9.90
2022-10-05T21:29:22.138Z,9.77
2022-10-05T21:31:49.074Z,9.77
2022-10-05T21:34:15.794Z,9.73
2022-10-05T21:36:42.268Z,9.60
2022-10-05T21:39:08.799Z,9.60
2022-10-05T21:41:35.371Z,9.61
2022-10-05T21:44:02.090Z,9.53
2022-10-05T21:46:29.579Z,9.53
2022-10-05T21:48:56.283Z,9.45
2022-10-05T21:51:25.005Z,9.37
2022-10-05T21:53:55.595Z,9.39
2022-10-05T21:56:25.279Z,9.33
2022-10-05T21:58:52.239Z,9.29
2022-10-05T22:01:22.466Z,9.12
2022-10-05T22:03:49.640Z,9.17
2022-10-05T22:06:16.196Z,9.09
2022-10-05T22:08:42.755Z,9.05
2022-10-05T22:11:17.657Z,9.04
2022-10-05T22:13:47.634Z,9.08
2022-10-05T22:16:15.763Z,9.03
2022-10-05T22:18:42.902Z,8.91
2022-10-05T22:21:12.080Z,8.88
2022-10-05T22:23:43.569Z,8.83
2022-10-05T22:26:13.275Z,8.81
2022-10-05T22:28:40.946Z,8.86
2022-10-05T22:31:09.506Z,8.84
2022-10-05T22:33:37.064Z,8.86
2022-10-05T22:36:05.521Z,8.83
2022-10-05T22:38:32.614Z,8.81
2022-10-05T22:40:59.488Z,8.81
2022-10-05T22:43:27.091Z,8.81
2022-10-05T22:45:54.409Z,8.79
2022-10-05T22:48:20.978Z,8.78
2022-10-05T22:50:47.742Z,8.74
2022-10-05T22:53:14.864Z,8.76
2022-10-05T22:55:41.366Z,8.72
2022-10-05T22:58:07.916Z,8.73
2022-10-05T23:00:56.292Z,8.73
2022-10-05T23:03:21.040Z,8.73
2022-10-05T23:05:47.544Z,8.77
2022-10-05T23:08:14.097Z,8.72
2022-10-05T23:10:40.607Z,8.66
2022-10-05T23:13:07.388Z,8.63
2022-10-05T23:15:34.498Z,8.62
2022-10-05T23:18:01.050Z,8.61
2022-10-05T23:20:27.554Z,8.64
2022-10-05T23:22:54.074Z,8.60
2022-10-05T23:25:22.219Z,8.62
2022-10-05T23:27:48.872Z,8.60
2022-10-05T23:30:15.437Z,8.58
2022-10-05T23:32:44.388Z,8.60
2022-10-05T23:35:12.524Z,8.58
2022-10-05T23:37:41.409Z,8.60
2022-10-05T23:40:11.841Z,8.58
2022-10-05T23:42:39.894Z,8.62
2022-10-05T23:45:08.554Z,8.63
2022-10-05T23:47:35.036Z,8.64
2022-10-05T23:50:01.939Z,8.61
2022-10-05T23:52:28.447Z,8.62
2022-10-05T23:54:55.211Z,8.62
2022-10-05T23:57:21.935Z,8.60
2022-10-05T23:59:50.323Z,8.59
